createdAt,value
2018-11-10T00:02:25.385Z,31.37
2018-11-10T00:07:27.956Z,29.63
2018-11-10T00:12:49.170Z,32.00
2018-11-10T00:17:51.447Z,33.20
2018-11-10T00:22:53.788Z,34.40
2018-11-10T00:27:56.090Z,32.23
2018-11-10T00:32:58.394Z,34.73
2018-11-10T00:38:00.738Z,29.87
2018-11-10T00:43:03.149Z,29.83
2018-11-10T00:48:05.781Z,30.77
2018-11-10T00:53:08.101Z,30.53
2018-11-10T00:58:10.442Z,30.37
2018-11-10T01:03:12.764Z,31.20
2018-11-10T01:08:15.132Z,32.97
2018-11-10T01:13:17.434Z,31.20
2018-11-10T01:18:19.742Z,31.80
2018-11-10T01:23:22.114Z,30.93
2018-11-10T01:28:24.570Z,33.80
2018-11-10T01:33:26.893Z,32.17
2018-11-10T01:38:29.316Z,33.30
2018-11-10T01:43:31.577Z,33.03
2018-11-10T01:48:33.833Z,31.97
2018-11-10T01:53:36.104Z,32.10
2018-11-10T01:58:38.425Z,32.83
2018-11-10T02:03:40.725Z,33.43
2018-11-10T02:08:43.022Z,32.10
2018-11-10T02:13:45.319Z,33.00
2018-11-10T02:18:47.593Z,32.10
2018-11-10T02:23:49.922Z,30.63
2018-11-10T02:28:52.286Z,29.63
2018-11-10T02:33:54.553Z,29.27
2018-11-10T02:38:56.866Z,30.00
2018-11-10T02:43:59.138Z,28.33
2018-11-10T02:49:01.489Z,29.63
2018-11-10T02:54:03.966Z,29.60
2018-11-10T02:59:06.898Z,28.90
2018-11-10T03:04:09.369Z,28.57
2018-11-10T03:09:11.792Z,29.23
2018-11-10T03:14:14.065Z,26.67
2018-11-10T03:19:16.353Z,27.60
2018-11-10T03:24:18.733Z,28.23
2018-11-10T03:29:21.105Z,27.03
2018-11-10T03:34:23.383Z,28.53
2018-11-10T03:39:25.786Z,28.37
2018-11-10T03:44:28.061Z,26.83
2018-11-10T03:49:30.366Z,25.73
2018-11-10T03:54:32.662Z,24.53
2018-11-10T03:59:34.954Z,25.27
2018-11-10T04:04:37.282Z,22.80
2018-11-10T04:09:39.717Z,24.10
2018-11-10T04:14:41.938Z,23.13
2018-11-10T04:19:44.179Z,22.87
2018-11-10T04:24:46.389Z,24.13
2018-11-10T04:29:48.700Z,23.47
2018-11-10T04:34:50.926Z,25.77
2018-11-10T04:39:53.198Z,28.53
2018-11-10T04:44:55.412Z,29.00
2018-11-10T04:49:57.677Z,26.60
2018-11-10T04:54:59.928Z,26.67
2018-11-10T05:00:02.239Z,25.50
2018-11-10T05:05:05.272Z,25.20
2018-11-10T05:10:08.472Z,23.90
2018-11-10T05:15:11.973Z,24.27
2018-11-10T05:20:14.241Z,23.47
2018-11-10T05:25:16.625Z,23.40
2018-11-10T05:30:18.837Z,22.90
2018-11-10T05:35:21.072Z,22.53
2018-11-10T05:40:23.358Z,21.73
2018-11-10T05:45:25.590Z,22.83
2018-11-10T05:50:27.839Z,24.67
2018-11-10T05:55:30.124Z,22.97
2018-11-10T06:00:32.413Z,22.50
2018-11-10T06:05:34.715Z,22.27
2018-11-10T06:10:36.999Z,21.23
2018-11-10T06:15:39.474Z,21.83
2018-11-10T06:20:42.144Z,23.10
2018-11-10T06:25:44.459Z,22.60
2018-11-10T06:30:46.683Z,21.50
2018-11-10T06:35:48.935Z,20.20
2018-11-10T06:40:51.351Z,21.40
2018-11-10T06:45:53.611Z,21.20
2018-11-10T06:50:56.004Z,21.40
2018-11-10T06:55:58.224Z,20.53
2018-11-10T07:01:00.609Z,21.03
2018-11-10T07:06:02.956Z,19.33
2018-11-10T07:11:05.244Z,18.10
2018-11-10T07:16:07.478Z,19.30
2018-11-10T07:21:09.696Z,19.10
2018-11-10T07:26:11.918Z,18.63
2018-11-10T07:31:14.163Z,17.97
2018-11-10T07:36:16.581Z,16.93
2018-11-10T07:41:18.932Z,17.93
2018-11-10T07:46:21.149Z,18.70
2018-11-10T07:51:23.507Z,17.90
2018-11-10T07:56:25.657Z,17.20
2018-11-10T08:01:27.913Z,17.83
2018-11-10T08:06:30.191Z,17.07
2018-11-10T08:11:32.503Z,16.77
2018-11-10T08:16:35.087Z,16.57
2018-11-10T08:21:37.405Z,16.40
2018-11-10T08:26:39.644Z,15.20
2018-11-10T08:31:41.963Z,16.33
2018-11-10T08:36:44.236Z,14.53
2018-11-10T08:41:46.541Z,14.60
2018-11-10T08:46:48.891Z,13.57
2018-11-10T08:51:51.146Z,14.07
2018-11-10T08:56:53.480Z,14.33
2018-11-10T09:01:55.738Z,13.43
2018-11-10T09:06:58.036Z,13.07
2018-11-10T09:12:00.562Z,12.43
2018-11-10T09:17:02.829Z,12.53
2018-11-10T09:22:06.048Z,11.63
2018-11-10T09:27:08.307Z,10.53
2018-11-10T09:32:10.654Z,9.57
2018-11-10T09:37:12.914Z,9.60
2018-11-10T09:42:15.273Z,9.87
2018-11-10T09:47:17.487Z,9.07
2018-11-10T09:52:19.758Z,9.30
2018-11-10T09:57:22.132Z,8.53
2018-11-10T10:02:24.878Z,9.10
2018-11-10T10:07:26.735Z,8.03
2018-11-10T10:12:29.072Z,8.25
2018-11-10T10:17:31.599Z,8.18
2018-11-10T10:22:33.845Z,7.15
2018-11-10T10:27:36.386Z,7.72
2018-11-10T10:32:38.764Z,7.20
2018-11-10T10:37:41.248Z,7.03
2018-11-10T10:42:44.995Z,7.35
2018-11-10T10:47:47.254Z,6.08
2018-11-10T10:52:49.505Z,6.72
2018-11-10T10:57:51.762Z,7.45
2018-11-10T11:04:01.921Z,6.40
2018-11-10T11:09:05.780Z,6.30
2018-11-10T11:14:08.073Z,6.33
2018-11-10T11:19:10.326Z,6.47
2018-11-10T11:24:12.591Z,6.28
2018-11-10T11:29:14.975Z,6.33
2018-11-10T11:34:17.521Z,6.67
2018-11-10T11:39:19.765Z,6.50
2018-11-10T11:44:22.055Z,6.17
2018-11-10T11:49:24.305Z,5.97
2018-11-10T11:54:26.558Z,6.03
2018-11-10T11:59:28.800Z,6.58
2018-11-10T12:04:31.179Z,6.33
2018-11-10T12:09:33.372Z,6.05
2018-11-10T12:14:35.620Z,6.15
2018-11-10T12:19:37.871Z,6.15
2018-11-10T12:24:40.088Z,5.92
2018-11-10T12:29:42.335Z,5.70
2018-11-10T12:34:44.587Z,5.75
2018-11-10T12:39:46.809Z,5.53
2018-11-10T12:44:49.065Z,4.85
2018-11-10T12:49:51.336Z,5.40
2018-11-10T12:54:53.787Z,5.40
2018-11-10T12:59:56.228Z,5.65
2018-11-10T13:04:58.645Z,5.70
2018-11-10T13:10:01.059Z,5.85
2018-11-10T13:15:03.478Z,6.20
2018-11-10T13:20:07.849Z,5.90
2018-11-10T13:25:11.160Z,6.10
2018-11-10T13:30:14.554Z,6.17
2018-11-10T13:35:16.796Z,7.12
2018-11-10T13:40:19.020Z,6.90
2018-11-10T13:45:21.287Z,5.97
2018-11-10T13:50:23.516Z,6.25
2018-11-10T13:55:25.760Z,6.47
2018-11-10T14:00:28.011Z,6.17
2018-11-10T14:05:30.319Z,6.15
2018-11-10T14:10:32.544Z,6.47
2018-11-10T14:15:34.840Z,6.05
2018-11-10T14:20:37.125Z,6.30
2018-11-10T14:25:39.361Z,6.90
2018-11-10T14:30:41.591Z,7.90
2018-11-10T14:35:43.817Z,7.58
2018-11-10T14:40:46.051Z,7.10
2018-11-10T14:45:48.316Z,7.42
2018-11-10T14:50:50.609Z,7.30
2018-11-10T14:55:52.863Z,7.72
2018-11-10T15:00:55.158Z,8.65
2018-11-10T15:05:57.440Z,9.90
2018-11-10T15:10:59.671Z,9.90
2018-11-10T15:16:01.994Z,9.33
2018-11-10T15:21:04.254Z,10.00
2018-11-10T15:26:06.493Z,10.20
2018-11-10T15:31:08.778Z,10.53
2018-11-10T15:36:10.996Z,10.68
2018-11-10T15:41:13.258Z,10.68
2018-11-10T15:46:15.542Z,10.82
2018-11-10T15:51:17.800Z,10.45
2018-11-10T15:56:26.972Z,10.75
2018-11-10T16:01:29.352Z,10.60
2018-11-10T16:06:31.613Z,10.75
2018-11-10T16:11:33.894Z,11.22
2018-11-10T16:16:36.572Z,11.43
2018-11-10T16:21:38.822Z,11.40
2018-11-10T16:26:41.130Z,12.07
2018-11-10T16:31:43.408Z,12.37
2018-11-10T16:36:45.722Z,12.05
2018-11-10T16:41:47.984Z,11.25
2018-11-10T16:46:50.930Z,11.40
2018-11-10T16:51:53.415Z,11.65
2018-11-10T16:56:55.670Z,11.78
2018-11-10T17:01:57.945Z,10.82
2018-11-10T17:07:00.312Z,11.22
2018-11-10T17:12:02.642Z,11.25
2018-11-10T17:17:05.244Z,11.15
2018-11-10T17:22:07.552Z,11.57
2018-11-10T17:27:09.838Z,12.03
2018-11-10T17:32:12.077Z,12.68
2018-11-10T17:37:14.337Z,13.08
2018-11-10T17:42:16.663Z,13.55
2018-11-10T17:47:18.912Z,11.63
2018-11-10T17:52:21.317Z,12.70
2018-11-10T17:57:23.434Z,13.43
2018-11-10T18:02:25.792Z,13.68
2018-11-10T18:07:28.033Z,13.32
2018-11-10T18:12:30.296Z,13.58
2018-11-10T18:17:32.810Z,13.73
2018-11-10T18:22:35.238Z,14.75
2018-11-10T18:27:37.930Z,15.13
2018-11-10T18:32:40.354Z,14.35
2018-11-10T18:37:42.849Z,16.80
2018-11-10T18:42:45.128Z,15.53
2018-11-10T18:47:47.417Z,14.45
2018-11-10T18:52:49.682Z,15.83
2018-11-10T18:57:51.961Z,15.43
2018-11-10T19:02:54.318Z,14.87
2018-11-10T19:07:56.615Z,14.80
2018-11-10T19:12:59.484Z,15.87
2018-11-10T19:18:01.776Z,14.43
2018-11-10T19:23:04.248Z,14.85
2018-11-10T19:28:06.506Z,14.47
2018-11-10T19:33:08.897Z,14.47
2018-11-10T19:38:11.162Z,13.78
2018-11-10T19:43:13.731Z,14.25
2018-11-10T19:48:16.019Z,14.80
2018-11-10T19:53:18.301Z,15.28
2018-11-10T19:58:20.578Z,15.30
2018-11-10T20:03:22.844Z,14.97
2018-11-10T20:08:25.068Z,15.88
2018-11-10T20:13:27.413Z,15.00
2018-11-10T20:18:29.704Z,15.83
2018-11-10T20:23:32.111Z,15.50
2018-11-10T20:28:34.380Z,15.93
2018-11-10T20:33:36.630Z,15.25
2018-11-10T20:38:38.914Z,15.72
2018-11-10T20:43:41.128Z,16.20
2018-11-10T20:48:43.520Z,16.00
2018-11-10T20:53:45.810Z,15.68
2018-11-10T20:58:48.063Z,16.35
2018-11-10T21:03:50.713Z,15.53
2018-11-10T21:08:53.608Z,15.00
2018-11-10T21:13:55.939Z,16.65
2018-11-10T21:18:58.260Z,16.35
2018-11-10T21:24:00.510Z,15.68
2018-11-10T21:29:02.774Z,16.50
2018-11-10T21:34:05.410Z,15.90
2018-11-10T21:39:08.854Z,16.17
2018-11-10T21:44:11.076Z,16.03
2018-11-10T21:49:13.503Z,16.63
2018-11-10T21:54:15.662Z,16.27
2018-11-10T21:59:17.889Z,16.70
2018-11-10T22:04:20.174Z,17.33
2018-11-10T22:09:22.626Z,17.55
2018-11-10T22:14:24.774Z,17.20
2018-11-10T22:19:27.070Z,16.60
2018-11-10T22:24:29.308Z,16.77
2018-11-10T22:29:31.566Z,17.42
2018-11-10T22:34:33.827Z,17.10
2018-11-10T22:39:36.067Z,17.47
2018-11-10T22:44:38.324Z,17.57
2018-11-10T22:49:40.623Z,18.00
2018-11-10T22:54:42.855Z,16.67
2018-11-10T22:59:45.122Z,17.65
2018-11-10T23:04:47.368Z,17.70
2018-11-10T23:09:49.673Z,17.63
2018-11-10T23:14:51.899Z,17.03
2018-11-10T23:19:54.256Z,18.13
2018-11-10T23:24:56.471Z,18.33
2018-11-10T23:29:58.733Z,18.03
2018-11-10T23:35:00.946Z,17.93
2018-11-10T23:40:03.283Z,17.33
2018-11-10T23:45:05.998Z,16.93
2018-11-10T23:50:10.505Z,17.73
2018-11-10T23:55:13.641Z,17.87
